Lilys Hope 5K Run Walk 2017

Sunday, November 12, 2017 9:06 AM (GMT-5) - Final results

Race info
Sport: Running - road
Location: New Market, MD, United States
Start type: Mass start
Distance: 3.11 Miles
Racers: 57
Category results: Exclude top 1 overall
Timed on: iPad
Timed with: Webscorer PRO 2.8
Updated: Sunday, November 12, 2017 8:28 PM (GMT-5)
Organized by: Potomac Highlands Distance Club
Race website: http://www.phdispatch.com/

Contact organizer

Use this form to send an email to the organizer.

Your name
Your email address
Confirm email address
Message to organizer
Send

Place Bib Racer name Affiliation Category Age Gender Finish time
1285Jennifer LangeNew Market, MD 31-4034F 24:17.7--100%45.42%42.14%7:48.7
2312Amber LongWoodsboro, MD 31-4039F 25:05.0+0:47.3+3.24%96.86%43.65%40.27%8:03.9
358Ashley BoumelFrederick, MD 31-4033F 25:08.5+0:50.8+3.48%96.63%43.52%40.13%8:05.0
4251Monica JohnsonNew Market, MD 31-4037F 26:53.7+2:36.0+10.70%90.33%39.58%35.95%8:38.9
5191Tricia GriffisNew Market, MD 31-4039F 27:34.1+3:16.4+13.47%88.13%38.07%34.35%8:51.9
610Julie ArnesonUnion Bridge, MD 31-4038F 28:15.3+3:57.6+16.30%85.98%36.52%32.71%9:05.1
7722Melissa GoldenFrederick, MD 31-4035F 29:18.0+5:00.3+20.60%82.92%34.17%30.22%9:25.3
8464Leah RussiDamascus, MD 31-4037F 29:38.2+5:20.5+21.99%81.98%33.42%29.42%9:31.8
9566Kylene ToomeyNew Market, MD 31-4038F 29:39.9+5:22.2+22.10%81.90%33.35%29.36%9:32.3
10500Emily ShermanFairfield, PA 31-4034F 29:53.4+5:35.7+23.03%81.28%32.85%28.82%9:36.7
11555Bekah TehaanNew Market, MD 31-4039F 29:56.2+5:38.5+23.22%81.15%32.74%28.71%9:37.6
12398Alison O'ConnorNew Market, MD 31-4034F 30:29.9+6:12.2+25.53%79.66%31.48%27.37%9:48.4
13648Feather De La MataEllicott City, MD 31-4038F 31:48.0+7:30.3+30.89%76.40%28.56%24.27%10:13.5
14466Maura RyanWashington, DC 31-4031F 33:03.5+8:45.8+36.07%73.49%25.73%21.27%10:37.8
15534Shannon StaubLaytonsville, MD 31-4037F 34:12.5+9:54.8+40.80%71.02%23.15%18.54%11:00.0
16254Jaime JordanMount Airy, MD 31-4040F 34:28.3+10:10.6+41.89%70.48%22.56%17.91%11:05.1
17237Valicity HohlNew Market, MD 31-4038F 36:15.8+11:58.1+49.26%67.00%18.53%13.64%11:39.6
18146Stephanie FellJarrettsville, MD 31-4037F 36:34.8+12:17.1+50.57%66.42%17.82%12.89%11:45.7
19527Kristin StaigerNew Market, MD 31-4038F 37:32.7+13:15.0+54.54%64.71%15.65%10.59%12:04.3
20563Nicole ToczylowskiSykesville, MD 31-4039F 38:45.8+14:28.1+59.55%62.68%12.91%7.69%12:27.8
2186Bridget CornwellFinksburg, MD 31-4038F 38:46.5+14:28.8+59.60%62.66%12.89%7.66%12:28.1
22684Jenny GorskiNew Market, MD 31-4035F 39:26.8+15:09.1+62.37%61.59%11.38%6.06%12:41.0
23371Jennifer MorrisFrederick, MD 31-4037F 39:32.7+15:15.0+62.77%61.44%11.16%5.83%12:42.9
24166Brandy FryFrederick, MD 31-4036F 40:25.9+16:08.2+66.42%60.09%9.17%3.72%13:00.0
25324Erin LutherDamascus, MD 31-4037F 41:01.6+16:43.9+68.87%59.22%7.83%2.30%13:11.5
26203Jesye HavrillaFrederick, MD 31-4032F 41:01.9+16:44.2+68.89%59.21%7.82%2.29%13:11.6
27645Susan DeebBeltsville, MD 31-4036F 41:53.1+17:35.4+72.40%58.00%5.90%0.25%13:28.1
28447Beth RiggsBeltsville, MD 31-4039F 41:54.3+17:36.6+72.48%57.98%5.86%0.21%13:28.5
29670Luisa JaureguiGermantwn, MD 31-4033F 41:59.5+17:41.8+72.84%57.86%5.66%0.00%13:30.1
30112Christine DerbyDamascus, MD 31-4040F 45:16.1+20:58.4+86.33%53.67%-1.70%-7.80%14:33.3
3163Katie BrowningGaithersburg, MD 31-4033F 46:18.5+22:00.8+90.61%52.46%-4.04%-10.28%14:53.4
32541Hannah StewartNew Market, MD 31-4036F 48:19.4+24:01.7+98.90%50.28%-8.56%-15.08%15:32.3
33213Riann HeflinFrederick, MD 31-4039F 48:25.2+24:07.5+99.30%50.18%-8.78%-15.31%15:34.2
34201Victoria HarterFrederick, MD 31-4034F 50:33.6+26:15.9+108.11%48.05%-13.59%-20.40%16:15.4
35131Anna EganDamascus, MD 31-4035F 50:54.6+26:36.9+109.55%47.72%-14.37%-21.24%16:22.2
36657Trisha NeeDamascus, MD 31-4031F 51:31.1+27:13.4+112.05%47.16%-15.74%-22.69%16:33.9
37654Emily NaumanFrederick, MD 31-4033F 51:51.8+27:34.1+113.47%46.84%-16.52%-23.51%16:40.6
38332Katie MaloneNew Market, MD 31-4039F 52:04.0+27:46.3+114.31%46.66%-16.97%-23.99%16:44.5
39124Kelly DuncanNew Windsor, MD 31-4038F 53:06.1+28:48.4+118.57%45.75%-19.30%-26.46%17:04.5
40353Katie MeleNew Market, MD 31-4032F 53:52.5+29:34.8+121.75%45.10%-21.04%-28.30%17:19.4
41388Mahlet NegussieDamascus, MD 31-4034F 54:16.4+29:58.7+123.39%44.76%-21.93%-29.25%17:27.1
42241Delyza HowardWoodbine, MD 31-4039F 55:46.1+31:28.4+129.55%43.56%-25.29%-32.81%17:55.9
43110Michelle DelgadoFrederick, MD 31-4038F 56:08.9+31:51.2+131.11%43.27%-26.14%-33.71%18:03.2
44639Lesley O'DonnellChesapeake Beach, MD 31-4040F 56:28.7+32:11.0+132.47%43.02%-26.88%-34.50%18:09.6
45480Donna SchislerTaneytown, MD 31-4032F 56:55.4+32:37.7+134.30%42.68%-27.88%-35.56%18:18.2
46116Maryanne DewittFrederick, MD 31-4037F 57:08.9+32:51.2+135.23%42.51%-28.39%-36.09%18:22.5
47604Christy WrightBoonsboro, MD 31-4037F 57:09.3+32:51.6+135.25%42.51%-28.40%-36.11%18:22.7
4842Jenny BlakleyNew Market, MD 31-4034F 57:40.1+33:22.4+137.37%42.13%-29.56%-37.33%18:32.6
49680Lauren PizzutoNew Market, MD 31-4038F 58:41.2+34:23.5+141.56%41.40%-31.84%-39.76%18:52.2
50669Katie HackeyMonrovia, MD 31-4038F 58:41.6+34:23.9+141.59%41.39%-31.86%-39.77%18:52.3
5168Becky CarrMount Airy, MD 31-4036F 58:45.2+34:27.5+141.83%41.35%-31.99%-39.92%18:53.5
52539Ana Maria StempleFrederick, MD 31-4031F 59:27.6+35:09.9+144.74%40.86%-33.58%-41.60%19:07.2
53263Natalie KingsburyGlenwood, MD 31-4038F 1:00:51.6+36:33.9+150.50%39.92%-36.73%-44.93%19:34.1
54678Monica GerliskyNew Market, MD 31-4035F 1:01:12.7+36:55.0+151.95%39.69%-37.52%-45.77%19:40.9
5573Tracy ChapmanSykesville, MD 31-4040F 1:02:52.1+38:34.4+158.77%38.64%-41.24%-49.72%20:12.9
56401Kelli O'NealFrederick, MD 31-4033F 1:02:57.6+38:39.9+159.15%38.59%-41.45%-49.93%20:14.7
57413Jazel ParksGermantown, MD 31-4033F 1:05:00.7+40:43.0+167.59%37.37%-46.05%-54.82%20:54.2